Main page
METAR-TAF:

METAR-TAF

Airports :

Windom Municipal Airport

Windom, Minnesota, United States

latitude: 43-54-48N, longitude: 095-06-34W, elevation: 1410 ft

Current weather observation

The report was made 30 minutes ago, at 21:55 UTC
Wind 13 mph from the South/Southwest
Temperature 18°F
Humidity 67%
Pressure 30.60 in. Hg
Visibility: 10 miles
Clear sky

METAR: KMWM 202155Z AUTO 20011KT 10SM CLR M08/M13 A3060 RMK AO2 O2

Time: 16:25 (22:25 UTC)


TAF: missing

Weather observations and forecasts of more than 4000 airports (METAR and TAF reports).

The available stations are represented by yellow and red dots on the map.

Hover mouse over dot to see the name of the station.

Then click to see weather observations and forecasts.

To change the map : click on the green buttons with a black cross to zoom in, on the green button with a dash to zoom out, or on the green arrows for adjacent maps.


METAR-TAF: